Time;durP1;ratioP1;P1;durP2;ratioP2;P2;SDS_P1;SDS_P2;PMS_P1;PMS_P2;Temp;Humidity;BMP_temperature;BMP_pressure;BME280_temperature;BME280_humidity;BME280_pressure;Samples;Min_cycle;Max_cycle;Signal;HPM_P1;HPM_P2
2022/05/21 00:00:38;;;;;;;30.42;16.80;;;;;;;;;;4969866;28;95864;-73
2022/05/21 00:03:04;;;;;;;27.40;15.95;;;;;;;;;;4964079;28;97165;-73
2022/05/21 00:05:33;;;;;;;27.60;16.15;;;;;;;;;;4970256;28;97399;-74
2022/05/21 00:07:59;;;;;;;25.45;16.15;;;;;;;;;;4963547;28;95325;-73
2022/05/21 00:10:28;;;;;;;28.30;17.23;;;;;;;;;;4972112;28;96825;-73
2022/05/21 00:12:54;;;;;;;32.08;17.33;;;;;;;;;;4972268;28;96936;-73
2022/05/21 00:15:22;;;;;;;34.40;18.70;;;;;;;;;;4954894;28;95384;-73
2022/05/21 00:17:49;;;;;;;33.35;17.35;;;;;;;;;;4967035;28;96452;-73
2022/05/21 00:23:07;;;;;;;37.85;20.08;;;;;;;;;;4972461;28;96897;-73
2022/05/21 00:25:34;;;;;;;31.02;18.88;;;;;;;;;;4971507;28;97305;-73
2022/05/21 00:28:00;;;;;;;27.17;18.25;;;;;;;;;;4972202;28;95441;-72
2022/05/21 00:30:26;;;;;;;33.78;19.63;;;;;;;;;;4971633;28;95723;-73
2022/05/21 00:32:52;;;;;;;32.00;18.35;;;;;;;;;;4972473;28;97692;-72
2022/05/21 00:35:19;;;;;;;31.88;18.30;;;;;;;;;;4971365;28;95323;-73
2022/05/21 00:37:45;;;;;;;43.13;18.13;;;;;;;;;;4975216;28;97226;-73
2022/05/21 00:40:11;;;;;;;32.10;18.77;;;;;;;;;;4972136;28;95196;-73
2022/05/21 00:42:44;;;;;;;30.42;17.77;;;;;;;;;;4971700;28;96429;-72
2022/05/21 00:45:11;;;;;;;35.72;18.63;;;;;;;;;;4971316;28;97395;-73
2022/05/21 00:47:38;;;;;;;31.33;16.55;;;;;;;;;;4971976;28;95263;-74
2022/05/21 00:50:06;;;;;;;30.05;16.42;;;;;;;;;;4972091;28;96900;-73
2022/05/21 00:52:33;;;;;;;32.20;16.92;;;;;;;;;;4954096;28;97394;-73
2022/05/21 00:55:03;;;;;;;24.30;15.93;;;;;;;;;;4969572;28;95328;-73
2022/05/21 00:57:35;;;;;;;24.90;15.23;;;;;;;;;;4971850;28;97019;-74
2022/05/21 01:00:01;;;;;;;;;;;;;;;;;;4975390;28;97410;-73
2022/05/21 01:02:31;;;;;;;25.95;15.27;;;;;;;;;;4970808;28;127095;-73
2022/05/21 01:04:59;;;;;;;23.48;14.15;;;;;;;;;;4971715;28;97638;-74
2022/05/21 01:07:26;;;;;;;24.58;14.98;;;;;;;;;;4967144;28;95369;-73
2022/05/21 01:09:53;;;;;;;29.85;15.45;;;;;;;;;;4971307;28;97039;-72
2022/05/21 01:12:21;;;;;;;24.00;13.65;;;;;;;;;;4971936;28;96764;-73
2022/05/21 01:14:50;;;;;;;23.40;13.65;;;;;;;;;;4972315;28;95737;-73
2022/05/21 01:17:19;;;;;;;32.45;13.77;;;;;;;;;;4968529;28;96020;-73
2022/05/21 01:19:58;;;;;;;23.52;13.52;;;;;;;;;;4971428;28;96667;-73
2022/05/21 01:22:26;;;;;;;25.85;13.30;;;;;;;;;;4974769;28;95188;-73
2022/05/21 01:24:53;;;;;;;29.77;13.52;;;;;;;;;;4971387;28;97282;-73
2022/05/21 01:27:19;;;;;;;24.27;13.13;;;;;;;;;;4970078;28;95235;-73
2022/05/21 01:29:47;;;;;;;29.65;13.90;;;;;;;;;;4971093;28;95700;-73
2022/05/21 01:32:17;;;;;;;27.35;13.48;;;;;;;;;;4970760;28;97637;-72
2022/05/21 01:34:44;;;;;;;31.55;13.70;;;;;;;;;;4972200;28;95965;-73
2022/05/21 01:37:11;;;;;;;20.02;12.65;;;;;;;;;;4970560;28;96957;-73
2022/05/21 01:39:37;;;;;;;32.58;14.43;;;;;;;;;;4968922;28;97448;-73
2022/05/21 01:42:04;;;;;;;26.77;12.80;;;;;;;;;;4973240;28;95249;-73
2022/05/21 01:44:39;;;;;;;24.33;12.85;;;;;;;;;;4959579;28;95799;-73
2022/05/21 01:47:10;;;;;;;30.40;12.93;;;;;;;;;;4973672;28;95205;-73
2022/05/21 01:49:37;;;;;;;24.98;13.55;;;;;;;;;;4974889;28;97187;-73
2022/05/21 01:52:04;;;;;;;26.95;14.20;;;;;;;;;;4974607;28;97361;-73
2022/05/21 01:54:31;;;;;;;26.70;13.35;;;;;;;;;;4957169;28;95371;-72
2022/05/21 01:56:57;;;;;;;33.85;14.15;;;;;;;;;;4973986;28;97054;-74
2022/05/21 01:59:24;;;;;;;27.45;13.35;;;;;;;;;;4973839;28;97878;-73
2022/05/21 02:01:50;;;;;;;28.02;13.60;;;;;;;;;;4975032;28;95201;-72
2022/05/21 02:04:17;;;;;;;28.70;12.93;;;;;;;;;;4977595;28;95799;-74
2022/05/21 02:06:44;;;;;;;27.98;13.30;;;;;;;;;;4972961;28;95342;-74
2022/05/21 02:09:11;;;;;;;27.90;12.63;;;;;;;;;;4970139;28;97135;-74
2022/05/21 02:11:41;;;;;;;31.02;12.45;;;;;;;;;;4966741;28;97633;-73
2022/05/21 02:14:10;;;;;;;20.70;12.13;;;;;;;;;;4957352;28;95753;-73
2022/05/21 02:16:37;;;;;;;27.52;11.90;;;;;;;;;;4973098;28;96793;-72
2022/05/21 02:19:04;;;;;;;26.50;12.30;;;;;;;;;;4974012;28;97301;-71
2022/05/21 02:21:31;;;;;;;32.95;12.65;;;;;;;;;;4973522;28;95523;-72
2022/05/21 02:24:01;;;;;;;32.08;12.73;;;;;;;;;;4974621;28;96752;-73
2022/05/21 02:26:27;;;;;;;32.95;12.90;;;;;;;;;;4975722;28;96057;-72
2022/05/21 02:28:54;;;;;;;27.60;11.85;;;;;;;;;;4974110;28;96836;-72
2022/05/21 02:31:21;;;;;;;22.92;12.15;;;;;;;;;;4974102;28;97051;-72
2022/05/21 02:33:47;;;;;;;28.83;12.32;;;;;;;;;;4974315;28;96314;-72
2022/05/21 02:36:13;;;;;;;28.77;12.75;;;;;;;;;;4974027;28;96730;-72
2022/05/21 02:41:25;;;;;;;27.98;12.10;;;;;;;;;;4974052;28;95149;-72
2022/05/21 02:43:51;;;;;;;24.23;11.77;;;;;;;;;;4974991;28;96600;-72
2022/05/21 02:46:18;;;;;;;36.80;12.80;;;;;;;;;;4974239;28;97264;-72
2022/05/21 02:48:44;;;;;;;32.83;12.88;;;;;;;;;;4976296;28;95473;-72
2022/05/21 02:51:11;;;;;;;24.75;12.50;;;;;;;;;;4956811;28;96043;-72
2022/05/21 02:53:37;;;;;;;29.67;12.60;;;;;;;;;;4974090;28;95693;-72
2022/05/21 02:56:05;;;;;;;26.27;12.27;;;;;;;;;;4974331;28;96875;-72
2022/05/21 02:58:32;;;;;;;32.53;12.73;;;;;;;;;;4955072;28;96305;-72
2022/05/21 03:00:59;;;;;;;31.75;12.88;;;;;;;;;;4974064;28;95117;-72
2022/05/21 03:03:25;;;;;;;31.48;14.00;;;;;;;;;;4972662;28;98116;-73
2022/05/21 03:05:54;;;;;;;30.23;12.55;;;;;;;;;;4973516;28;97388;-73
2022/05/21 03:11:06;;;;;;;37.05;13.13;;;;;;;;;;4974870;28;96786;-73
2022/05/21 03:13:34;;;;;;;39.30;12.80;;;;;;;;;;4972739;28;95429;-73
2022/05/21 03:16:00;;;;;;;32.55;12.63;;;;;;;;;;4970817;28;96063;-73
2022/05/21 03:18:27;;;;;;;32.85;12.05;;;;;;;;;;4969517;28;96147;-73
2022/05/21 03:20:54;;;;;;;32.78;13.07;;;;;;;;;;4972446;28;95418;-73
2022/05/21 03:23:20;;;;;;;40.63;13.38;;;;;;;;;;4972702;28;96806;-73
2022/05/21 03:25:47;;;;;;;37.70;12.68;;;;;;;;;;4973292;28;97768;-73
2022/05/21 03:28:14;;;;;;;33.65;11.35;;;;;;;;;;4971430;28;97163;-73
2022/05/21 03:30:41;;;;;;;28.50;11.10;;;;;;;;;;4972806;28;96559;-73
2022/05/21 03:33:07;;;;;;;27.65;10.80;;;;;;;;;;4976481;28;97321;-73
2022/05/21 03:35:37;;;;;;;33.20;10.80;;;;;;;;;;4970941;28;95782;-72
2022/05/21 03:38:04;;;;;;;32.67;10.25;;;;;;;;;;4970703;28;96831;-73
2022/05/21 03:40:31;;;;;;;41.95;10.23;;;;;;;;;;4973344;28;95939;-72
2022/05/21 03:42:57;;;;;;;27.77;8.80;;;;;;;;;;4972046;28;97108;-72
2022/05/21 03:45:24;;;;;;;33.58;9.65;;;;;;;;;;4972339;28;97285;-73
2022/05/21 03:47:51;;;;;;;31.27;9.18;;;;;;;;;;4973061;28;95411;-72
2022/05/21 03:50:19;;;;;;;23.85;7.85;;;;;;;;;;4972089;28;95764;-72
2022/05/21 03:52:45;;;;;;;23.90;7.18;;;;;;;;;;4972781;28;97368;-72
2022/05/21 03:55:12;;;;;;;31.83;8.00;;;;;;;;;;4976616;28;95145;-72
2022/05/21 03:57:38;;;;;;;30.42;7.88;;;;;;;;;;4972273;28;97327;-71
2022/05/21 04:00:07;;;;;;;28.77;7.60;;;;;;;;;;4972349;28;95330;-72
2022/05/21 19:44:51;;;;;;;9.85;2.28;;;;;;;;;;5033095;27;96068;-71
2022/05/21 19:47:18;;;;;;;6.53;1.95;;;;;;;;;;5028187;28;98788;-71
2022/05/21 19:49:45;;;;;;;10.82;2.17;;;;;;;;;;5029518;28;95481;-73
2022/05/21 19:52:12;;;;;;;9.70;2.22;;;;;;;;;;5029526;28;96769;-71
2022/05/21 19:54:41;;;;;;;11.35;2.90;;;;;;;;;;5019953;27;96030;-71
2022/05/21 19:57:07;;;;;;;11.52;3.28;;;;;;;;;;5021400;28;95300;-71
2022/05/21 19:59:34;;;;;;;24.42;5.75;;;;;;;;;;5023505;28;96715;-73
2022/05/21 20:02:00;;;;;;;41.17;13.38;;;;;;;;;;5027885;28;97351;-73
2022/05/21 20:04:27;;;;;;;38.45;9.88;;;;;;;;;;5012603;28;95145;-73
2022/05/21 20:06:53;;;;;;;26.95;8.02;;;;;;;;;;5009199;28;96289;-72
2022/05/21 20:09:20;;;;;;;37.58;9.43;;;;;;;;;;5024385;28;96245;-73
2022/05/21 20:11:47;;;;;;;50.05;15.40;;;;;;;;;;5027410;28;96911;-73
2022/05/21 20:14:13;;;;;;;33.92;12.73;;;;;;;;;;5004664;28;97187;-72
2022/05/21 20:16:40;;;;;;;20.35;6.30;;;;;;;;;;5027501;28;95441;-71
2022/05/21 20:19:21;;;;;;;41.70;5.50;;;;;;;;;;5028494;28;96797;-73
2022/05/21 20:21:48;;;;;;;52.58;8.73;;;;;;;;;;5028134;28;97425;-73
2022/05/21 20:24:26;;;;;;;72.75;6.38;;;;;;;;;;5008242;28;96207;-72
2022/05/21 20:26:53;;;;;;;64.50;6.07;;;;;;;;;;5031760;28;96702;-72
2022/05/21 20:29:19;;;;;;;44.65;5.10;;;;;;;;;;5011559;28;95159;-72
2022/05/21 20:31:46;;;;;;;23.83;4.20;;;;;;;;;;5023819;28;96876;-73
2022/05/21 20:34:13;;;;;;;39.38;5.38;;;;;;;;;;5005069;28;96581;-73
2022/05/21 20:36:39;;;;;;;51.38;6.05;;;;;;;;;;5026039;28;96194;-72
2022/05/21 20:39:05;;;;;;;41.63;4.28;;;;;;;;;;5004701;28;96716;-71
2022/05/21 20:41:32;;;;;;;46.38;4.38;;;;;;;;;;5037818;27;97357;-70
2022/05/21 20:43:58;;;;;;;45.72;4.28;;;;;;;;;;5011635;28;96751;-71
2022/05/21 20:46:24;;;;;;;16.00;2.78;;;;;;;;;;5006010;28;96738;-71
2022/05/21 20:51:36;;;;;;;37.78;3.70;;;;;;;;;;5025669;28;96550;-72
2022/05/21 20:54:03;;;;;;;17.40;3.78;;;;;;;;;;5000880;28;97438;-72
2022/05/21 20:56:29;;;;;;;11.32;3.20;;;;;;;;;;5004783;28;96430;-72
2022/05/21 20:58:55;;;;;;;22.38;4.07;;;;;;;;;;5014224;28;95823;-71
2022/05/21 21:01:22;;;;;;;24.00;4.15;;;;;;;;;;5014150;28;97271;-71
2022/05/21 21:03:48;;;;;;;10.93;3.35;;;;;;;;;;5009084;28;95292;-72
2022/05/21 21:06:14;;;;;;;10.82;3.80;;;;;;;;;;5006036;28;96776;-73
2022/05/21 21:08:41;;;;;;;17.38;3.58;;;;;;;;;;5000180;28;97281;-72
2022/05/21 21:11:07;;;;;;;15.02;3.42;;;;;;;;;;5015359;28;95246;-71
2022/05/21 21:13:33;;;;;;;11.55;3.42;;;;;;;;;;5009080;28;97271;-72
2022/05/21 21:16:00;;;;;;;11.77;3.55;;;;;;;;;;5002204;28;95464;-73
2022/05/21 21:18:26;;;;;;;19.10;3.53;;;;;;;;;;4998330;28;96372;-70
2022/05/21 21:20:52;;;;;;;12.30;3.78;;;;;;;;;;5010170;28;97880;-72
2022/05/21 21:23:19;;;;;;;23.20;4.05;;;;;;;;;;4997399;28;95230;-71
2022/05/21 21:25:45;;;;;;;9.52;3.67;;;;;;;;;;5014049;28;96478;-71
2022/05/21 21:28:11;;;;;;;38.10;5.00;;;;;;;;;;4999598;28;96272;-74
2022/05/21 21:30:37;;;;;;;22.90;3.72;;;;;;;;;;5014268;28;95284;-71
2022/05/21 21:33:04;;;;;;;19.55;4.95;;;;;;;;;;4994980;28;97646;-71
2022/05/21 21:35:31;;;;;;;12.10;3.63;;;;;;;;;;5010832;28;95293;-71
2022/05/21 21:37:57;;;;;;;13.25;3.80;;;;;;;;;;5002079;28;96672;-73
2022/05/21 21:40:24;;;;;;;14.80;4.10;;;;;;;;;;4989977;28;97387;-74
2022/05/21 21:42:50;;;;;;;16.77;3.65;;;;;;;;;;4997652;28;96371;-73
2022/05/21 21:45:16;;;;;;;10.82;4.00;;;;;;;;;;4987360;28;96907;-71
2022/05/21 21:47:42;;;;;;;11.00;3.60;;;;;;;;;;4982657;28;95888;-74
2022/05/21 21:50:10;;;;;;;15.38;3.80;;;;;;;;;;5002473;28;95324;-74
2022/05/21 21:52:37;;;;;;;38.90;5.25;;;;;;;;;;5014126;28;96855;-72
2022/05/21 21:55:04;;;;;;;27.80;4.47;;;;;;;;;;4997906;28;95429;-71
2022/05/21 21:57:30;;;;;;;15.00;3.80;;;;;;;;;;4988956;28;96779;-72
2022/05/21 22:02:42;;;;;;;20.85;4.35;;;;;;;;;;4991499;28;95266;-71
2022/05/21 22:05:11;;;;;;;24.48;3.60;;;;;;;;;;5014285;27;96671;-71
2022/05/21 22:07:39;;;;;;;20.92;3.30;;;;;;;;;;4983543;28;98522;-72
2022/05/21 22:10:05;;;;;;;7.32;2.70;;;;;;;;;;4982424;28;96308;-71
2022/05/21 22:12:32;;;;;;;11.18;2.95;;;;;;;;;;4987748;28;96740;-71
2022/05/21 22:14:58;;;;;;;27.17;3.30;;;;;;;;;;5009303;28;96604;-72
2022/05/21 22:17:24;;;;;;;8.20;3.00;;;;;;;;;;5011204;28;96900;-71
2022/05/21 22:19:50;;;;;;;15.35;3.60;;;;;;;;;;4994901;28;97747;-72
2022/05/21 22:22:17;;;;;;;14.52;3.63;;;;;;;;;;5004475;28;95368;-72
2022/05/21 22:24:43;;;;;;;22.58;7.13;;;;;;;;;;5010973;28;96800;-71
2022/05/21 22:27:10;;;;;;;55.22;17.08;;;;;;;;;;4997040;28;97293;-72
2022/05/21 22:29:36;;;;;;;27.90;12.80;;;;;;;;;;4992273;28;95596;-72
2022/05/21 22:32:02;;;;;;;10.43;5.70;;;;;;;;;;5012601;28;96598;-71
2022/05/21 22:34:30;;;;;;;10.38;3.60;;;;;;;;;;5006734;28;96666;-73
2022/05/21 22:36:56;;;;;;;12.13;3.53;;;;;;;;;;5010198;28;95277;-72
2022/05/21 22:39:22;;;;;;;12.35;5.32;;;;;;;;;;4996027;28;97374;-73
2022/05/21 22:41:49;;;;;;;13.93;3.42;;;;;;;;;;5011448;28;95188;-71
2022/05/21 22:44:15;;;;;;;17.23;3.10;;;;;;;;;;5004195;28;96780;-71
2022/05/21 22:46:42;;;;;;;15.57;5.80;;;;;;;;;;5006515;28;96927;-72
2022/05/21 22:49:10;;;;;;;11.25;4.85;;;;;;;;;;4991246;28;95139;-71
2022/05/21 22:51:36;;;;;;;12.95;5.22;;;;;;;;;;5012274;28;95669;-72
2022/05/21 22:54:03;;;;;;;8.50;4.80;;;;;;;;;;5006693;28;95961;-72
2022/05/21 22:56:31;;;;;;;13.27;4.72;;;;;;;;;;5003617;28;95264;-71
2022/05/21 22:58:58;;;;;;;10.05;4.10;;;;;;;;;;5008837;28;96741;-71
2022/05/21 23:01:25;;;;;;;7.00;3.08;;;;;;;;;;5012651;28;95393;-74
2022/05/21 23:03:52;;;;;;;6.45;3.28;;;;;;;;;;5002641;28;96656;-73
2022/05/21 23:06:18;;;;;;;8.60;3.05;;;;;;;;;;5009714;28;97416;-73
2022/05/21 23:08:44;;;;;;;9.10;3.03;;;;;;;;;;5007812;28;96218;-74
2022/05/21 23:11:11;;;;;;;8.63;2.50;;;;;;;;;;5012496;28;96645;-72
2022/05/21 23:19:08;;;;;;;6.82;3.28;;;;;;;;;;5004314;28;96980;-71
2022/05/21 23:21:34;;;;;;;13.20;4.07;;;;;;;;;;5015289;28;96798;-73
2022/05/21 23:24:01;;;;;;;36.17;4.65;;;;;;;;;;5004549;28;96759;-73
2022/05/21 23:26:28;;;;;;;29.33;5.30;;;;;;;;;;5028487;27;96073;-74
2022/05/21 23:28:54;;;;;;;51.28;6.32;;;;;;;;;;5008400;28;95330;-73
2022/05/21 23:31:21;;;;;;;11.98;4.00;;;;;;;;;;5007296;28;96846;-72
2022/05/21 23:33:48;;;;;;;13.95;4.57;;;;;;;;;;5012764;28;97449;-71
2022/05/21 23:36:14;;;;;;;12.68;4.53;;;;;;;;;;5006749;28;95244;-74
2022/05/21 23:38:40;;;;;;;11.10;3.97;;;;;;;;;;5013112;28;95805;-73
2022/05/21 23:41:07;;;;;;;7.47;4.18;;;;;;;;;;5002091;28;96097;-74
2022/05/21 23:43:34;;;;;;;11.05;4.38;;;;;;;;;;5014716;28;95257;-72
2022/05/21 23:46:01;;;;;;;17.10;4.72;;;;;;;;;;5000827;28;97426;-72
2022/05/21 23:48:28;;;;;;;29.83;5.38;;;;;;;;;;4992958;28;95395;-72
2022/05/21 23:50:55;;;;;;;34.47;5.80;;;;;;;;;;4988029;28;96112;-72
2022/05/21 23:53:21;;;;;;;11.68;4.78;;;;;;;;;;5000900;28;97226;-72
2022/05/21 23:55:48;;;;;;;19.95;4.82;;;;;;;;;;5006567;28;96276;-74
2022/05/21 23:58:14;;;;;;;23.65;5.90;;;;;;;;;;5012277;28;96828;-71
